Time;durP1;ratioP1;P1;durP2;ratioP2;P2;SDS_P1;SDS_P2;PMS_P1;PMS_P2;Temp;Humidity;BMP_temperature;BMP_pressure;BME280_temperature;BME280_humidity;BME280_pressure;Samples;Min_cycle;Max_cycle;Signal;HPM_P1;HPM_P2
2024/02/20 00:00:35;;;;;;;;;;;17.80;67.00;;;;;;5001749;28;1296;-70
2024/02/20 00:03:01;;;;;;;;;;;17.80;67.00;;;;;;5004533;28;1326;-68
2024/02/20 00:05:27;;;;;;;;;;;17.80;67.00;;;;;;4990166;28;1462;-68
2024/02/20 00:07:55;;;;;;;;;;;17.80;67.00;;;;;;5002809;28;1910;-68
2024/02/20 00:10:21;;;;;;;;;;;17.80;67.00;;;;;;5003271;28;1489;-68
2024/02/20 00:12:47;;;;;;;;;;;17.80;67.10;;;;;;4989033;28;1492;-71
2024/02/20 00:15:12;;;;;;;;;;;17.80;67.10;;;;;;4991114;28;833;-71
2024/02/20 00:17:38;;;;;;;;;;;17.80;67.10;;;;;;4992790;28;1436;-68
2024/02/20 00:20:05;;;;;;;;;;;17.80;67.10;;;;;;5004721;28;1284;-69
2024/02/20 00:22:34;;;;;;;;;;;17.80;67.10;;;;;;4994160;28;1276;-70
2024/02/20 00:24:59;;;;;;;;;;;17.80;67.10;;;;;;4991252;28;1006;-69
2024/02/20 00:27:25;;;;;;;;;;;17.80;67.10;;;;;;4991244;28;1971;-70
2024/02/20 00:29:50;;;;;;;;;;;17.80;67.10;;;;;;5000807;28;1295;-70
2024/02/20 00:32:17;;;;;;;;;;;17.70;67.10;;;;;;4990199;28;832;-69
2024/02/20 00:34:42;;;;;;;;;;;17.80;67.20;;;;;;4993317;28;995;-69
2024/02/20 00:37:08;;;;;;;;;;;17.70;67.10;;;;;;5004837;28;943;-69
2024/02/20 00:39:34;;;;;;;;;;;17.70;67.10;;;;;;5009432;28;1319;-68
2024/02/20 00:42:01;;;;;;;;;;;17.80;67.20;;;;;;5003443;28;892;-69
2024/02/20 00:44:27;;;;;;;;;;;17.70;67.10;;;;;;5006186;28;1200;-68
2024/02/20 00:46:56;;;;;;;;;;;17.80;67.20;;;;;;5013910;28;1910;-68
2024/02/20 00:49:21;;;;;;;;;;;17.70;67.20;;;;;;5008288;28;1351;-71
2024/02/20 00:51:47;;;;;;;;;;;17.80;67.20;;;;;;5006068;28;1285;-68
2024/02/20 00:54:13;;;;;;;;;;;17.70;67.20;;;;;;5003276;28;932;-69
2024/02/20 00:56:39;;;;;;;;;;;17.70;67.10;;;;;;5008934;28;1434;-72
2024/02/20 00:59:05;;;;;;;;;;;17.70;67.20;;;;;;4986745;28;1509;-71
2024/02/20 01:01:30;;;;;;;;;;;17.70;67.20;;;;;;4985089;28;1393;-71
2024/02/20 01:03:56;;;;;;;;;;;17.70;67.20;;;;;;4985172;28;963;-72
2024/02/20 01:06:21;;;;;;;;;;;17.70;67.20;;;;;;4983931;28;1910;-73
2024/02/20 01:08:47;;;;;;;;;;;17.70;67.20;;;;;;5003567;28;1130;-73
2024/02/20 01:11:13;;;;;;;;;;;17.70;67.20;;;;;;5002793;28;1369;-73
2024/02/20 01:13:38;;;;;;;;;;;17.70;67.20;;;;;;5004665;28;1285;-72
2024/02/20 01:16:04;;;;;;;;;;;17.70;67.20;;;;;;4983909;28;1464;-71
2024/02/20 01:18:29;;;;;;;;;;;17.70;67.20;;;;;;5003157;28;1523;-69
2024/02/20 01:20:55;;;;;;;;;;;17.70;67.20;;;;;;4999889;28;1449;-69
2024/02/20 01:23:21;;;;;;;;;;;17.70;67.20;;;;;;4985226;28;1498;-69
2024/02/20 01:25:46;;;;;;;;;;;17.70;67.20;;;;;;5001327;28;1508;-71
2024/02/20 01:28:11;;;;;;;;;;;17.70;67.20;;;;;;5001241;28;1961;-68
2024/02/20 01:30:37;;;;;;;;;;;17.70;67.90;;;;;;4981875;28;1526;-69
2024/02/20 01:33:03;;;;;;;;;;;17.70;67.20;;;;;;4984830;28;1527;-70
2024/02/20 01:35:28;;;;;;;;;;;17.70;67.20;;;;;;4983700;28;1605;-68
2024/02/20 01:37:54;;;;;;;;;;;17.70;67.20;;;;;;4985996;28;1778;-69
2024/02/20 01:40:21;;;;;;;;;;;17.70;67.20;;;;;;4999204;28;1584;-68
2024/02/20 01:42:56;;;;;;;;;;;17.70;67.20;;;;;;5006303;28;1692;-69
2024/02/20 01:45:22;;;;;;;;;;;17.70;67.20;;;;;;4990830;28;1592;-69
2024/02/20 01:47:48;;;;;;;;;;;17.70;67.20;;;;;;5010193;28;1938;-69
2024/02/20 01:50:13;;;;;;;;;;;17.70;67.20;;;;;;5008966;28;1276;-69
2024/02/20 01:52:39;;;;;;;;;;;17.70;67.30;;;;;;4991605;28;1401;-69
2024/02/20 01:55:06;;;;;;;;;;;17.70;67.30;;;;;;4991241;28;1354;-67
2024/02/20 01:57:32;;;;;;;;;;;17.70;67.30;;;;;;4986769;28;1299;-68
2024/02/20 01:59:57;;;;;;;;;;;17.70;67.30;;;;;;4989989;28;1571;-70
2024/02/20 02:02:22;;;;;;;;;;;17.70;67.30;;;;;;5003248;28;1367;-68
2024/02/20 02:04:48;;;;;;;;;;;17.70;67.30;;;;;;5005338;28;1194;-70
2024/02/20 02:07:13;;;;;;;;;;;17.70;67.30;;;;;;4996771;28;1898;-70
2024/02/20 02:09:39;;;;;;;;;;;17.70;67.30;;;;;;5004395;28;1578;-70
2024/02/20 02:12:04;;;;;;;;;;;17.70;67.40;;;;;;5003900;28;1530;-70
2024/02/20 02:14:30;;;;;;;;;;;17.70;67.40;;;;;;5006487;28;1493;-70
2024/02/20 02:16:55;;;;;;;;;;;17.70;67.40;;;;;;4987448;28;1366;-70
2024/02/20 02:19:21;;;;;;;;;;;17.70;67.40;;;;;;4987581;28;1579;-70
2024/02/20 02:21:47;;;;;;;;;;;17.70;67.40;;;;;;5004372;28;1143;-70
2024/02/20 02:24:12;;;;;;;;;;;17.70;67.40;;;;;;4993651;28;1319;-70
2024/02/20 02:26:38;;;;;;;;;;;17.70;67.40;;;;;;4993351;28;1891;-69
2024/02/20 02:29:03;;;;;;;;;;;17.70;67.40;;;;;;4988521;28;1006;-70
2024/02/20 02:31:29;;;;;;;;;;;17.70;67.40;;;;;;4993200;28;1505;-69
2024/02/20 02:33:56;;;;;;;;;;;17.70;67.40;;;;;;4991774;28;1448;-69
2024/02/20 02:36:21;;;;;;;;;;;17.60;67.40;;;;;;4986396;28;1508;-69
2024/02/20 02:38:47;;;;;;;;;;;17.70;67.40;;;;;;4986508;28;1633;-70
2024/02/20 02:41:12;;;;;;;;;;;17.70;67.50;;;;;;4990783;28;1301;-70
2024/02/20 02:43:38;;;;;;;;;;;17.70;67.40;;;;;;4986290;28;1550;-70
2024/02/20 02:46:09;;;;;;;;;;;17.70;67.50;;;;;;5002930;28;1894;-69
2024/02/20 02:48:35;;;;;;;;;;;17.70;67.50;;;;;;5004169;28;1201;-69
2024/02/20 02:51:00;;;;;;;;;;;17.70;67.50;;;;;;5004186;28;1468;-69
2024/02/20 02:53:26;;;;;;;;;;;17.60;67.50;;;;;;5006529;28;1429;-69
2024/02/20 02:55:51;;;;;;;;;;;17.70;67.50;;;;;;5005417;28;1554;-69
2024/02/20 02:58:17;;;;;;;;;;;17.60;67.40;;;;;;5004126;28;1482;-69
2024/02/20 03:00:42;;;;;;;;;;;17.60;67.40;;;;;;5004395;28;1363;-70
2024/02/20 03:03:08;;;;;;;;;;;17.70;67.60;;;;;;5001864;28;1312;-71
2024/02/20 03:05:36;;;;;;;;;;;17.70;67.50;;;;;;5005732;28;1495;-70
2024/02/20 03:08:02;;;;;;;;;;;17.70;67.50;;;;;;5005134;28;1903;-70
2024/02/20 03:10:27;;;;;;;;;;;17.70;67.50;;;;;;5007700;28;1414;-70
2024/02/20 03:12:55;;;;;;;;;;;17.60;67.50;;;;;;5003044;28;1335;-71
2024/02/20 03:15:21;;;;;;;;;;;17.60;67.50;;;;;;5003853;28;1323;-71
2024/02/20 03:17:47;;;;;;;;;;;17.70;67.50;;;;;;5003685;28;1243;-70
2024/02/20 03:20:14;;;;;;;;;;;17.60;67.50;;;;;;4985611;28;1678;-71
2024/02/20 03:22:41;;;;;;;;;;;17.60;67.50;;;;;;4985859;28;1623;-72
2024/02/20 03:25:07;;;;;;;;;;;17.60;67.50;;;;;;5004641;28;1374;-73
2024/02/20 03:27:33;;;;;;;;;;;17.60;67.50;;;;;;5005289;28;1922;-72
2024/02/20 03:29:59;;;;;;;;;;;17.60;67.60;;;;;;5006126;28;1296;-71
2024/02/20 03:32:26;;;;;;;;;;;17.60;67.50;;;;;;4976922;28;1185;-72
2024/02/20 03:34:52;;;;;;;;;;;17.60;67.50;;;;;;4986923;28;1095;-71
2024/02/20 03:37:17;;;;;;;;;;;17.60;67.50;;;;;;4988788;28;932;-72
2024/02/20 03:39:43;;;;;;;;;;;17.60;67.60;;;;;;5005708;28;1283;-70
2024/02/20 03:42:08;;;;;;;;;;;17.60;67.60;;;;;;5004119;28;1544;-70
2024/02/20 03:44:37;;;;;;;;;;;17.60;67.60;;;;;;5005940;28;1512;-70
2024/02/20 03:47:02;;;;;;;;;;;17.60;67.60;;;;;;5003501;28;1930;-70
2024/02/20 03:49:28;;;;;;;;;;;17.60;67.60;;;;;;5002206;28;1385;-69
2024/02/20 03:51:53;;;;;;;;;;;17.60;67.60;;;;;;5005970;28;1070;-69
2024/02/20 03:54:18;;;;;;;;;;;17.60;67.60;;;;;;5002142;28;1449;-69
2024/02/20 03:56:44;;;;;;;;;;;17.60;67.60;;;;;;5003014;28;1462;-69
2024/02/20 03:59:09;;;;;;;;;;;17.60;67.60;;;;;;5002069;28;1506;-70
2024/02/20 04:01:35;;;;;;;;;;;17.60;67.60;;;;;;5001879;28;1459;-70
2024/02/20 04:04:00;;;;;;;;;;;17.60;67.60;;;;;;4985502;28;1354;-69
2024/02/20 04:06:28;;;;;;;;;;;17.60;67.60;;;;;;5002526;28;1960;-69
2024/02/20 04:08:53;;;;;;;;;;;17.60;67.60;;;;;;4982662;28;1558;-70
2024/02/20 04:11:19;;;;;;;;;;;17.60;67.60;;;;;;4984455;28;1728;-69
2024/02/20 04:13:48;;;;;;;;;;;17.60;67.60;;;;;;4990438;28;1246;-69
2024/02/20 04:16:13;;;;;;;;;;;17.60;67.60;;;;;;5003610;28;1442;-69
2024/02/20 04:18:39;;;;;;;;;;;17.60;67.60;;;;;;5003593;28;1676;-69
2024/02/20 04:21:04;;;;;;;;;;;17.60;67.60;;;;;;5000086;28;1619;-69
2024/02/20 04:23:30;;;;;;;;;;;17.60;67.60;;;;;;4992319;28;1509;-70
2024/02/20 04:25:55;;;;;;;;;;;17.60;67.60;;;;;;5001632;28;1512;-69
2024/02/20 04:28:21;;;;;;;;;;;17.60;67.60;;;;;;5002263;28;1965;-68
2024/02/20 04:30:46;;;;;;;;;;;17.60;67.60;;;;;;5000998;28;1257;-70
2024/02/20 04:33:12;;;;;;;;;;;17.60;67.60;;;;;;5002708;28;1226;-69
2024/02/20 04:35:38;;;;;;;;;;;17.60;67.60;;;;;;5005231;28;1418;-69
2024/02/20 04:38:04;;;;;;;;;;;17.60;67.70;;;;;;4988601;28;1482;-71
2024/02/20 04:40:29;;;;;;;;;;;17.60;67.70;;;;;;4986627;28;1406;-69
2024/02/20 04:42:57;;;;;;;;;;;17.60;67.70;;;;;;5004446;28;1396;-69
2024/02/20 04:45:23;;;;;;;;;;;17.60;67.70;;;;;;5004961;28;1441;-71
2024/02/20 04:47:48;;;;;;;;;;;17.60;67.70;;;;;;5002190;28;1969;-69
2024/02/20 04:50:17;;;;;;;;;;;17.60;67.70;;;;;;5004674;28;1695;-71
2024/02/20 04:52:42;;;;;;;;;;;17.60;67.70;;;;;;4987291;28;1632;-72
2024/02/20 04:55:08;;;;;;;;;;;17.60;67.70;;;;;;5002279;28;1240;-71
2024/02/20 04:57:33;;;;;;;;;;;17.60;67.70;;;;;;5003785;28;1183;-70
2024/02/20 04:59:59;;;;;;;;;;;17.60;67.70;;;;;;5004374;28;1434;-72
2024/02/20 05:02:24;;;;;;;;;;;17.60;67.70;;;;;;4988042;28;1553;-71
2024/02/20 05:04:50;;;;;;;;;;;17.60;67.70;;;;;;5001503;28;1395;-70
2024/02/20 05:07:15;;;;;;;;;;;17.60;67.70;;;;;;5002115;28;1930;-72
2024/02/20 05:09:41;;;;;;;;;;;17.60;67.70;;;;;;5001391;28;1326;-72
2024/02/20 05:12:06;;;;;;;;;;;17.60;67.70;;;;;;5003389;28;1466;-71
2024/02/20 05:14:32;;;;;;;;;;;17.60;67.60;;;;;;5002386;28;1546;-71
2024/02/20 05:16:57;;;;;;;;;;;17.60;67.60;;;;;;5007190;28;1552;-70
2024/02/20 05:19:23;;;;;;;;;;;17.70;67.60;;;;;;4992356;28;1356;-69
2024/02/20 05:21:48;;;;;;;;;;;17.70;67.50;;;;;;5005634;28;1224;-69
2024/02/20 05:24:13;;;;;;;;;;;17.70;67.40;;;;;;5003029;28;880;-70
2024/02/20 05:26:39;;;;;;;;;;;17.70;67.20;;;;;;5006509;28;1926;-70
2024/02/20 05:29:04;;;;;;;;;;;17.70;67.20;;;;;;4987592;28;1327;-70
2024/02/20 05:31:30;;;;;;;;;;;17.70;67.10;;;;;;4990466;28;1647;-70
2024/02/20 05:33:56;;;;;;;;;;;17.80;67.10;;;;;;4986011;28;1027;-70
2024/02/20 05:36:22;;;;;;;;;;;17.80;66.90;;;;;;4985896;28;1539;-70
2024/02/20 05:38:47;;;;;;;;;;;17.80;66.90;;;;;;5007907;28;1661;-70
2024/02/20 05:41:13;;;;;;;;;;;17.80;66.80;;;;;;4988394;28;1371;-70
2024/02/20 05:43:38;;;;;;;;;;;17.90;66.80;;;;;;5007122;28;1636;-70
2024/02/20 05:46:04;;;;;;;;;;;17.90;66.70;;;;;;5006101;28;1886;-69
2024/02/20 05:48:29;;;;;;;;;;;17.90;66.60;;;;;;5005725;28;1614;-69
2024/02/20 05:50:55;;;;;;;;;;;18.00;66.60;;;;;;5004381;28;1452;-70
2024/02/20 05:53:20;;;;;;;;;;;17.90;66.50;;;;;;5006218;28;1232;-70
2024/02/20 05:55:45;;;;;;;;;;;17.90;66.40;;;;;;4989407;28;1354;-70
2024/02/20 05:58:13;;;;;;;;;;;17.90;66.30;;;;;;4987128;28;1284;-70
2024/02/20 06:00:39;;;;;;;;;;;18.00;66.30;;;;;;4995473;28;1368;-70
2024/02/20 06:03:05;;;;;;;;;;;18.00;66.30;;;;;;4988873;28;1277;-70
2024/02/20 06:05:31;;;;;;;;;;;18.00;66.20;;;;;;4991177;28;1142;-70
2024/02/20 06:07:57;;;;;;;;;;;18.00;66.20;;;;;;5006494;28;2384;-70
2024/02/20 06:10:22;;;;;;;;;;;18.00;66.10;;;;;;5003483;28;1336;-69
2024/02/20 06:12:48;;;;;;;;;;;18.00;66.10;;;;;;5005519;28;1100;-70
2024/02/20 06:15:13;;;;;;;;;;;18.00;66.00;;;;;;4985680;28;1262;-69
2024/02/20 06:17:39;;;;;;;;;;;18.10;66.10;;;;;;5000707;28;998;-70
2024/02/20 06:20:04;;;;;;;;;;;18.10;66.10;;;;;;5002517;28;1272;-70
2024/02/20 06:22:30;;;;;;;;;;;18.10;66.00;;;;;;5004132;28;1134;-70
2024/02/20 06:24:55;;;;;;;;;;;18.10;66.00;;;;;;5003482;28;1368;-70
2024/02/20 06:27:21;;;;;;;;;;;18.10;65.90;;;;;;5004370;28;1898;-70
2024/02/20 06:29:46;;;;;;;;;;;18.10;65.90;;;;;;5004227;28;1342;-70
2024/02/20 06:32:12;;;;;;;;;;;18.10;65.90;;;;;;5003838;28;1575;-70
2024/02/20 06:34:37;;;;;;;;;;;18.10;65.80;;;;;;5003088;28;1470;-70
2024/02/20 06:37:03;;;;;;;;;;;18.10;65.80;;;;;;4977532;28;1366;-70
2024/02/20 06:39:28;;;;;;;;;;;18.10;65.80;;;;;;5003312;28;1528;-70
2024/02/20 06:41:54;;;;;;;;;;;18.10;65.80;;;;;;5003068;28;1536;-70
2024/02/20 06:44:19;;;;;;;;;;;18.10;65.70;;;;;;5002757;28;1674;-70
2024/02/20 06:46:45;;;;;;;;;;;18.20;65.70;;;;;;4990352;28;1902;-70
2024/02/20 06:49:10;;;;;;;;;;;18.10;65.70;;;;;;5005280;28;1345;-70
2024/02/20 06:51:36;;;;;;;;;;;18.10;65.70;;;;;;4986058;28;1604;-70
2024/02/20 06:54:03;;;;;;;;;;;18.20;65.80;;;;;;4988437;28;1511;-70
2024/02/20 06:56:28;;;;;;;;;;;18.10;65.70;;;;;;5003855;28;1981;-70
2024/02/20 06:58:54;;;;;;;;;;;18.10;65.70;;;;;;5003966;28;1470;-69
2024/02/20 07:01:20;;;;;;;;;;;18.20;65.70;;;;;;5003630;28;1474;-68
2024/02/20 07:03:48;;;;;;;;;;;18.10;65.70;;;;;;5002932;28;1196;-68
2024/02/20 07:06:14;;;;;;;;;;;18.10;65.70;;;;;;5003620;28;1910;-68
2024/02/20 07:08:43;;;;;;;;;;;18.10;65.70;;;;;;5005368;28;1433;-68
2024/02/20 07:11:10;;;;;;;;;;;18.10;65.70;;;;;;5006648;28;1507;-68
2024/02/20 07:13:37;;;;;;;;;;;18.10;65.70;;;;;;5004555;28;1633;-68
2024/02/20 07:16:05;;;;;;;;;;;18.10;65.80;;;;;;5007148;28;1000;-69
2024/02/20 07:18:30;;;;;;;;;;;18.10;65.80;;;;;;4988141;28;1353;-68
2024/02/20 07:20:56;;;;;;;;;;;18.10;65.80;;;;;;5004143;28;1236;-68
2024/02/20 07:23:21;;;;;;;;;;;18.10;65.80;;;;;;5004069;28;1416;-68
2024/02/20 07:25:47;;;;;;;;;;;18.10;65.90;;;;;;5004686;28;1526;-68
2024/02/20 07:28:13;;;;;;;;;;;18.10;65.90;;;;;;4985602;28;1906;-68
2024/02/20 07:30:38;;;;;;;;;;;18.10;65.90;;;;;;5001710;28;2084;-68
2024/02/20 07:33:04;;;;;;;;;;;18.10;65.90;;;;;;5004066;28;1514;-68
2024/02/20 07:35:30;;;;;;;;;;;18.10;65.90;;;;;;4991694;28;1509;-68
2024/02/20 07:37:55;;;;;;;;;;;18.10;65.90;;;;;;4981743;28;1348;-68
2024/02/20 07:40:21;;;;;;;;;;;18.10;66.00;;;;;;5002331;28;1508;-69
2024/02/20 07:42:46;;;;;;;;;;;18.10;66.00;;;;;;4986066;28;1369;-69
2024/02/20 07:45:12;;;;;;;;;;;18.10;66.00;;;;;;5005703;28;1438;-69
2024/02/20 07:47:38;;;;;;;;;;;18.10;66.00;;;;;;5000717;28;1978;-69
2024/02/20 07:50:03;;;;;;;;;;;18.10;66.10;;;;;;4999411;28;1464;-68
2024/02/20 07:52:29;;;;;;;;;;;18.10;66.10;;;;;;5004980;28;1457;-69
2024/02/20 07:54:54;;;;;;;;;;;18.10;66.00;;;;;;5001537;28;1582;-69
2024/02/20 07:57:20;;;;;;;;;;;18.10;66.10;;;;;;5002597;28;1720;-69
2024/02/20 07:59:45;;;;;;;;;;;18.10;66.10;;;;;;5002069;28;1513;-69
2024/02/20 08:02:13;;;;;;;;;;;18.10;66.10;;;;;;5002253;28;1319;-69
2024/02/20 08:04:40;;;;;;;;;;;18.10;66.10;;;;;;4991245;28;1570;-69
2024/02/20 08:07:06;;;;;;;;;;;18.10;66.10;;;;;;5000443;28;1903;-69
2024/02/20 08:09:31;;;;;;;;;;;18.00;66.80;;;;;;5001071;28;1517;-69
2024/02/20 08:11:57;;;;;;;;;;;18.10;66.10;;;;;;4988299;28;1538;-69
2024/02/20 08:14:25;;;;;;;;;;;18.10;66.10;;;;;;5002062;28;1496;-69
2024/02/20 08:16:50;;;;;;;;;;;18.10;66.10;;;;;;4990496;28;1540;-69
2024/02/20 08:19:16;;;;;;;;;;;18.10;66.10;;;;;;4984951;28;1489;-69
2024/02/20 08:21:41;;;;;;;;;;;18.00;66.00;;;;;;5000637;28;1427;-69
2024/02/20 08:24:07;;;;;;;;;;;18.00;66.10;;;;;;4983111;28;1528;-69
2024/02/20 08:26:33;;;;;;;;;;;18.00;66.10;;;;;;4999990;28;1982;-68
2024/02/20 08:28:58;;;;;;;;;;;18.10;66.10;;;;;;4986025;28;1740;-69
2024/02/20 08:31:23;;;;;;;;;;;18.00;66.10;;;;;;4988758;28;1590;-69
2024/02/20 08:33:49;;;;;;;;;;;18.00;66.20;;;;;;5002326;28;1682;-69
2024/02/20 08:36:17;;;;;;;;;;;18.00;66.20;;;;;;5003471;28;1453;-69
2024/02/20 08:38:43;;;;;;;;;;;18.00;66.10;;;;;;5004226;28;1390;-69
2024/02/20 08:41:09;;;;;;;;;;;18.00;66.20;;;;;;4988767;28;1253;-69
2024/02/20 08:43:35;;;;;;;;;;;18.00;66.20;;;;;;5002346;28;1262;-69
2024/02/20 08:46:00;;;;;;;;;;;18.00;66.20;;;;;;5001907;28;1540;-69
2024/02/20 08:48:26;;;;;;;;;;;18.00;66.20;;;;;;5004669;28;1902;-69
2024/02/20 08:50:52;;;;;;;;;;;18.00;66.20;;;;;;5001811;28;1276;-69
2024/02/20 08:53:17;;;;;;;;;;;18.00;66.30;;;;;;5005156;28;1057;-69
2024/02/20 08:55:43;;;;;;;;;;;18.00;66.30;;;;;;4976416;28;1804;-69
2024/02/20 08:58:08;;;;;;;;;;;18.00;66.30;;;;;;5008688;28;1253;-69
2024/02/20 09:00:34;;;;;;;;;;;18.00;66.30;;;;;;5006324;28;1296;-69
2024/02/20 09:03:00;;;;;;;;;;;18.00;66.30;;;;;;4975818;28;1233;-69
2024/02/20 09:05:25;;;;;;;;;;;18.00;66.30;;;;;;4972686;28;1507;-69
2024/02/20 09:07:51;;;;;;;;;;;18.00;66.30;;;;;;5004632;28;1910;-69
2024/02/20 09:10:16;;;;;;;;;;;17.90;66.40;;;;;;5002890;28;1233;-69
2024/02/20 09:12:42;;;;;;;;;;;18.00;66.40;;;;;;5006677;28;943;-69
2024/02/20 09:15:07;;;;;;;;;;;18.00;66.40;;;;;;4993814;28;1293;-69
2024/02/20 09:17:33;;;;;;;;;;;18.00;66.40;;;;;;5005979;28;1567;-70
2024/02/20 09:19:58;;;;;;;;;;;18.00;66.40;;;;;;4994320;28;1280;-70
2024/02/20 09:22:26;;;;;;;;;;;18.00;66.40;;;;;;5005165;28;1210;-70
2024/02/20 09:24:52;;;;;;;;;;;18.00;66.40;;;;;;5005988;28;1713;-69
2024/02/20 09:27:17;;;;;;;;;;;18.00;66.40;;;;;;4988700;28;1914;-69
2024/02/20 09:29:42;;;;;;;;;;;17.90;66.30;;;;;;5005160;28;1264;-70
2024/02/20 09:32:09;;;;;;;;;;;18.00;66.40;;;;;;4975896;28;1908;-70
2024/02/20 09:34:35;;;;;;;;;;;18.00;66.40;;;;;;4993265;28;1378;-70
2024/02/20 09:37:00;;;;;;;;;;;18.00;66.30;;;;;;5006795;28;1240;-70
2024/02/20 09:39:26;;;;;;;;;;;18.00;66.30;;;;;;5004125;28;1531;-70
2024/02/20 09:41:51;;;;;;;;;;;18.00;66.30;;;;;;5005609;28;1928;-69
2024/02/20 09:44:20;;;;;;;;;;;18.00;66.20;;;;;;5003897;28;1454;-70
2024/02/20 09:46:55;;;;;;;;;;;18.00;66.20;;;;;;5006117;28;1906;-70
2024/02/20 09:49:20;;;;;;;;;;;18.00;66.10;;;;;;4993774;28;1239;-70
2024/02/20 09:51:49;;;;;;;;;;;18.10;66.20;;;;;;4978682;28;1426;-71
2024/02/20 09:54:14;;;;;;;;;;;18.10;66.10;;;;;;4989654;28;1276;-71
2024/02/20 09:56:40;;;;;;;;;;;18.10;66.10;;;;;;5004806;28;1384;-70
2024/02/20 09:59:06;;;;;;;;;;;18.10;66.00;;;;;;4995416;28;1383;-71
2024/02/20 10:01:32;;;;;;;;;;;18.10;66.00;;;;;;5004242;28;1499;-70
2024/02/20 10:03:57;;;;;;;;;;;18.10;66.00;;;;;;4986369;28;1184;-70
2024/02/20 10:06:23;;;;;;;;;;;18.10;65.90;;;;;;4989085;28;1910;-69
2024/02/20 10:08:55;;;;;;;;;;;18.10;65.90;;;;;;5008902;28;1348;-69
2024/02/20 10:11:20;;;;;;;;;;;18.10;65.90;;;;;;4988365;28;1313;-70
2024/02/20 10:13:46;;;;;;;;;;;18.10;65.90;;;;;;4989147;28;1236;-69
2024/02/20 10:16:14;;;;;;;;;;;18.10;65.90;;;;;;5005720;28;1670;-70
2024/02/20 10:18:40;;;;;;;;;;;18.10;65.90;;;;;;4991090;28;1272;-69
2024/02/20 10:21:07;;;;;;;;;;;18.10;65.90;;;;;;5004832;28;1681;-69
2024/02/20 10:23:33;;;;;;;;;;;18.10;65.90;;;;;;5005649;28;1628;-70
2024/02/20 10:25:59;;;;;;;;;;;18.10;65.90;;;;;;4987309;28;1546;-70
2024/02/20 10:28:25;;;;;;;;;;;18.10;65.90;;;;;;5001509;28;1970;-70
2024/02/20 10:30:50;;;;;;;;;;;18.10;65.90;;;;;;4992434;28;1611;-70
2024/02/20 10:33:16;;;;;;;;;;;18.10;66.70;;;;;;5003586;28;1672;-70
2024/02/20 10:35:42;;;;;;;;;;;18.10;66.00;;;;;;5004735;28;1395;-70
2024/02/20 10:38:07;;;;;;;;;;;18.10;66.00;;;;;;4984015;28;1475;-70
2024/02/20 10:40:33;;;;;;;;;;;18.10;66.00;;;;;;4971194;28;1494;-70
2024/02/20 10:42:58;;;;;;;;;;;18.10;66.00;;;;;;5008423;28;1354;-70
2024/02/20 10:45:24;;;;;;;;;;;18.10;66.10;;;;;;5005945;28;1602;-69
2024/02/20 10:47:52;;;;;;;;;;;18.10;66.00;;;;;;4988901;28;1894;-70
2024/02/20 10:50:17;;;;;;;;;;;18.10;66.10;;;;;;5003938;28;1526;-70
2024/02/20 10:52:44;;;;;;;;;;;18.10;66.00;;;;;;5003376;28;1600;-70
2024/02/20 10:55:12;;;;;;;;;;;18.10;66.10;;;;;;5003866;28;1753;-70
2024/02/20 10:57:38;;;;;;;;;;;18.10;66.00;;;;;;4985910;28;1302;-70
2024/02/20 11:00:09;;;;;;;;;;;18.10;66.10;;;;;;5002663;28;1292;-70
2024/02/20 11:02:41;;;;;;;;;;;18.10;66.00;;;;;;5003176;28;1710;-69
2024/02/20 11:05:06;;;;;;;;;;;18.10;66.10;;;;;;4987267;28;1563;-70
2024/02/20 11:07:32;;;;;;;;;;;18.10;66.10;;;;;;4986453;28;1954;-70
2024/02/20 11:10:26;;;;;;;;;;;18.10;66.00;;;;;;5004408;28;1399;-70
2024/02/20 11:12:51;;;;;;;;;;;18.10;66.00;;;;;;5001842;28;1209;-70
2024/02/20 11:15:20;;;;;;;;;;;18.10;66.00;;;;;;5000182;28;1759;-70
2024/02/20 11:17:46;;;;;;;;;;;18.10;66.00;;;;;;4990402;28;1626;-70
2024/02/20 11:20:15;;;;;;;;;;;18.10;66.10;;;;;;4987771;28;1391;-70
2024/02/20 11:22:40;;;;;;;;;;;18.10;66.10;;;;;;4987052;28;1463;-70
2024/02/20 11:25:08;;;;;;;;;;;18.10;66.00;;;;;;5004615;28;1311;-70
2024/02/20 11:27:46;;;;;;;;;;;18.10;66.00;;;;;;4977376;28;2078;-70
2024/02/20 11:30:21;;;;;;;;;;;18.10;66.00;;;;;;5002727;28;1363;-70
2024/02/20 11:32:47;;;;;;;;;;;18.10;66.00;;;;;;4971423;28;2194;-70
2024/02/20 11:35:20;;;;;;;;;;;18.10;66.00;;;;;;4991042;28;1909;-69
2024/02/20 11:37:50;;;;;;;;;;;18.10;66.10;;;;;;5000800;28;986;-70
2024/02/20 11:40:42;;;;;;;;;;;18.10;66.10;;;;;;5003636;28;2189;-69
2024/02/20 11:43:08;;;;;;;;;;;18.10;66.10;;;;;;5000025;28;1938;-71
2024/02/20 11:45:36;;;;;;;;;;;18.10;66.10;;;;;;4989736;28;1315;-72
2024/02/20 11:48:05;;;;;;;;;;;18.10;66.10;;;;;;4987767;28;1910;-71
2024/02/20 11:50:32;;;;;;;;;;;18.10;66.10;;;;;;4983289;28;1309;-71
2024/02/20 11:52:58;;;;;;;;;;;18.10;66.10;;;;;;4987079;28;872;-70
2024/02/20 11:55:24;;;;;;;;;;;18.10;66.10;;;;;;4963100;28;1649;-69
2024/02/20 11:57:49;;;;;;;;;;;18.10;66.10;;;;;;4982860;28;1678;-69
2024/02/20 12:00:15;;;;;;;;;;;18.10;66.10;;;;;;4999976;28;1239;-70
2024/02/20 12:02:40;;;;;;;;;;;18.10;66.10;;;;;;4980850;28;1236;-70
2024/02/20 12:05:08;;;;;;;;;;;18.10;66.10;;;;;;4997458;28;1061;-72
2024/02/20 12:07:34;;;;;;;;;;;18.10;66.10;;;;;;5003271;28;1963;-70
2024/02/20 12:10:00;;;;;;;;;;;18.10;66.10;;;;;;4984774;28;1418;-70
2024/02/20 12:12:26;;;;;;;;;;;18.10;66.10;;;;;;5000435;28;1963;-71
2024/02/20 12:14:58;;;;;;;;;;;18.10;66.10;;;;;;4981402;28;1846;-72
2024/02/20 12:17:27;;;;;;;;;;;18.10;66.10;;;;;;4983581;28;1566;-71
2024/02/20 12:20:10;;;;;;;;;;;18.10;66.10;;;;;;4991000;28;2125;-71
2024/02/20 12:22:37;;;;;;;;;;;18.10;66.10;;;;;;5003354;28;1266;-71
2024/02/20 12:25:07;;;;;;;;;;;18.10;66.10;;;;;;4987388;28;1243;-70
2024/02/20 12:27:33;;;;;;;;;;;18.10;66.10;;;;;;4985698;28;1960;-71
2024/02/20 12:29:58;;;;;;;;;;;18.10;66.10;;;;;;4999071;28;1393;-71
2024/02/20 12:32:24;;;;;;;;;;;18.10;66.10;;;;;;4985589;28;1488;-69
2024/02/20 12:34:50;;;;;;;;;;;18.10;66.10;;;;;;4983695;28;1468;-71
2024/02/20 12:37:15;;;;;;;;;;;18.10;66.00;;;;;;5001627;28;1375;-72
2024/02/20 12:39:41;;;;;;;;;;;18.10;66.00;;;;;;5003856;28;1535;-71
2024/02/20 12:42:06;;;;;;;;;;;18.10;66.10;;;;;;5003532;28;1334;-70
2024/02/20 12:44:32;;;;;;;;;;;18.10;66.00;;;;;;4986119;28;1364;-68
2024/02/20 12:46:57;;;;;;;;;;;18.10;66.00;;;;;;5002194;28;1914;-69
2024/02/20 12:49:23;;;;;;;;;;;18.10;66.00;;;;;;4985414;28;1276;-69
2024/02/20 12:51:48;;;;;;;;;;;18.10;66.00;;;;;;5003921;28;1563;-71
2024/02/20 12:54:14;;;;;;;;;;;18.10;66.00;;;;;;5004699;28;1139;-68
2024/02/20 12:56:39;;;;;;;;;;;18.10;66.00;;;;;;5002628;28;1479;-68
2024/02/20 12:59:04;;;;;;;;;;;18.10;66.00;;;;;;4987242;28;1285;-71
2024/02/20 13:01:30;;;;;;;;;;;18.10;66.00;;;;;;4999774;28;1345;-71
2024/02/20 13:03:55;;;;;;;;;;;18.10;65.90;;;;;;5002310;28;1326;-68
2024/02/20 13:06:21;;;;;;;;;;;18.10;66.70;;;;;;5002405;28;1898;-69
2024/02/20 13:08:47;;;;;;;;;;;18.10;65.90;;;;;;5005084;28;1297;-69
2024/02/20 13:11:15;;;;;;;;;;;18.10;65.90;;;;;;5002877;28;1569;-69
2024/02/20 13:13:40;;;;;;;;;;;18.10;65.90;;;;;;4985592;28;1490;-68
2024/02/20 13:16:06;;;;;;;;;;;18.10;66.00;;;;;;4970162;28;1384;-70
2024/02/20 13:18:32;;;;;;;;;;;18.10;66.00;;;;;;5004696;28;1476;-71
2024/02/20 13:21:02;;;;;;;;;;;18.10;66.00;;;;;;5002565;28;1477;-71
2024/02/20 13:23:30;;;;;;;;;;;18.10;66.00;;;;;;4984964;28;1601;-71
2024/02/20 13:25:56;;;;;;;;;;;18.10;66.00;;;;;;5003731;28;1511;-68
2024/02/20 13:28:23;;;;;;;;;;;18.10;66.00;;;;;;4988742;28;1958;-71
2024/02/20 13:30:49;;;;;;;;;;;18.10;66.10;;;;;;5003636;28;1436;-70
2024/02/20 13:33:15;;;;;;;;;;;18.10;66.00;;;;;;5003236;28;1270;-68
2024/02/20 13:35:40;;;;;;;;;;;18.10;66.00;;;;;;4982521;28;1268;-69
2024/02/20 13:38:07;;;;;;;;;;;18.10;66.00;;;;;;5003493;28;1247;-70
2024/02/20 13:40:33;;;;;;;;;;;18.10;66.00;;;;;;5006972;28;1689;-71
2024/02/20 13:43:00;;;;;;;;;;;18.10;66.10;;;;;;5004334;28;1601;-70
2024/02/20 13:45:25;;;;;;;;;;;18.10;66.00;;;;;;5005370;28;1340;-71
2024/02/20 13:47:51;;;;;;;;;;;18.00;66.00;;;;;;5006821;28;1984;-71
2024/02/20 13:50:17;;;;;;;;;;;18.10;66.00;;;;;;4993466;28;1720;-71
2024/02/20 13:52:42;;;;;;;;;;;18.10;66.10;;;;;;5007283;28;1355;-70
2024/02/20 13:55:08;;;;;;;;;;;18.10;66.00;;;;;;4978226;28;1650;-72
2024/02/20 13:57:35;;;;;;;;;;;18.10;66.00;;;;;;5005547;28;1226;-69
2024/02/20 14:00:04;;;;;;;;;;;18.10;66.00;;;;;;5006898;28;1393;-71
2024/02/20 14:02:30;;;;;;;;;;;18.10;66.00;;;;;;4990749;28;1220;-68
2024/02/20 14:04:56;;;;;;;;;;;18.10;66.70;;;;;;5004170;28;1233;-68
2024/02/20 14:07:21;;;;;;;;;;;18.10;65.90;;;;;;4999993;28;1951;-69
2024/02/20 14:09:47;;;;;;;;;;;18.10;65.90;;;;;;5006354;28;1537;-71
2024/02/20 14:12:12;;;;;;;;;;;18.10;65.90;;;;;;5001823;28;1182;-68
2024/02/20 14:14:38;;;;;;;;;;;18.10;65.90;;;;;;4987505;28;1525;-69
2024/02/20 14:17:03;;;;;;;;;;;18.10;66.00;;;;;;4986285;28;1271;-69
2024/02/20 14:19:29;;;;;;;;;;;18.10;65.90;;;;;;5005244;28;1358;-70
2024/02/20 14:21:55;;;;;;;;;;;18.10;65.90;;;;;;5006237;28;1745;-71
2024/02/20 14:24:20;;;;;;;;;;;18.10;65.90;;;;;;4985600;28;1469;-69